Weather reports worldwide

Advertisment
Salsburgh, United Kingdom (99024): temperature & dewpoint: 19.05.2018 04:00:00 - 25.05.2018 04:00:00 (BST)Salsburgh, United Kingdom (99024): wind speed & gusts: 19.05.2018 04:00:00 - 25.05.2018 04:00:00 (BST)Salsburgh, United Kingdom (99024): wind direction: 19.05.2018 04:00:00 - 25.05.2018 04:00:00 (BST)Salsburgh, United Kingdom (99024): precipitation: 19.05.2018 04:00:00 - 25.05.2018 04:00:00 (BST)
Date & Time tt [°C] td [°C] ff [km/h] ff [kn] fx [km/h] fx [kn] dd rr [mm]
25.05.2018 04:00:00 5,9 5,9 24 13 - - ENE 0,0
25.05.2018 03:00:00 6,2 6,2 21 11 - - ENE 0,0
25.05.2018 02:00:00 6,5 6,5 21 11 - - ENE 0,0
25.05.2018 01:00:00 6,7 6,7 24 13 - - ENE 0,0
25.05.2018 00:00:00 6,9 6,9 28 15 - - ENE 0,0
24.05.2018 23:00:00 7,4 7,4 26 14 - - ENE 0,0
24.05.2018 22:00:00 7,8 7,3 24 13 - - E 0,0
24.05.2018 21:00:00 10,3 8,1 21 11 - - E 0,0
24.05.2018 20:00:00 12,5 8,8 22 12 - - ENE 0,0
24.05.2018 19:00:00 14,4 9,3 24 13 - - ENE 0,0
24.05.2018 18:00:00 15,9 9,8 24 13 - - ENE 0,0
24.05.2018 17:00:00 16,9 10,4 21 11 - - ENE 0,0
24.05.2018 16:00:00 16,1 10,3 26 14 - - ENE 0,0
24.05.2018 15:00:00 16,6 10,0 26 14 - - ENE 0,0
24.05.2018 14:00:00 14,7 9,3 24 13 - - NE 0,0
24.05.2018 13:00:00 13,0 8,3 24 13 - - ENE 0,0
24.05.2018 12:00:00 11,3 8,0 24 13 - - ENE 0,0
24.05.2018 11:00:00 9,1 6,8 26 14 - - ENE 0,0
24.05.2018 10:00:00 8,1 7,3 22 12 - - ENE 0,0
24.05.2018 09:00:00 6,8 6,8 21 11 - - ENE 0,0
24.05.2018 08:00:00 6,5 6,5 22 12 - - ENE 0,0
24.05.2018 07:00:00 6,1 6,1 24 13 - - ENE 0,0
24.05.2018 06:00:00 6,2 6,2 21 11 - - ENE 0,0
24.05.2018 05:00:00 6,2 6,2 21 11 - - ENE 0,0
24.05.2018 04:00:00 6,4 6,4 22 12 - - ENE 0,0
24.05.2018 03:00:00 6,4 6,4 22 12 - - ENE 0,0
24.05.2018 02:00:00 6,5 6,5 24 13 - - ENE 0,0
24.05.2018 01:00:00 6,7 6,7 26 14 - - ENE 0,0
24.05.2018 00:00:00 6,8 6,8 26 14 - - E 0,0
23.05.2018 23:00:00 6,9 6,9 26 14 - - E 0,0
23.05.2018 22:00:00 7,1 6,8 26 14 - - E 0,0
23.05.2018 21:00:00 8,5 7,0 26 14 - - E 0,0
23.05.2018 20:00:00 10,3 7,5 24 13 - - E 0,0
23.05.2018 19:00:00 12,8 8,5 22 12 - - E 0,0
23.05.2018 18:00:00 14,0 8,6 22 12 - - ENE 0,0
23.05.2018 17:00:00 14,2 8,6 22 12 - - ENE 0,0
23.05.2018 16:00:00 14,1 8,8 24 13 - - ENE 0,0
23.05.2018 15:00:00 14,0 8,4 22 12 - - ENE 0,0
23.05.2018 14:00:00 12,7 7,1 18 10 - - ENE 0,0
23.05.2018 13:00:00 12,0 7,3 18 10 - - ENE 0,0
23.05.2018 12:00:00 10,6 7,0 18 10 - - ENE 0,0
23.05.2018 11:00:00 9,1 6,6 21 11 - - ENE 0,0
23.05.2018 10:00:00 8,2 6,4 16 9 - - ENE 0,0
23.05.2018 09:00:00 7,3 6,1 18 10 - - ENE 0,0
23.05.2018 08:00:00 6,8 6,1 15 8 - - ENE 0,0
23.05.2018 07:00:00 6,5 5,7 18 10 - - E 0,0
23.05.2018 06:00:00 6,5 5,8 18 10 - - E 0,0
23.05.2018 05:00:00 6,4 5,6 18 10 - - ENE 0,0
23.05.2018 04:00:00 6,6 5,4 16 9 - - ENE 0,0
23.05.2018 03:00:00 6,6 5,5 18 10 - - ENE 0,0
23.05.2018 02:00:00 7,0 5,5 18 10 - - E 0,0
23.05.2018 01:00:00 7,1 5,4 21 11 - - E 0,0
23.05.2018 00:00:00 7,4 5,6 22 12 - - ENE 0,0
22.05.2018 23:00:00 7,8 5,6 26 14 - - E 0,0
22.05.2018 22:00:00 8,3 6,0 26 14 - - E 0,0
22.05.2018 21:00:00 8,7 6,0 26 14 - - E 0,0
22.05.2018 20:00:00 9,4 6,2 28 15 - - E 0,0
22.05.2018 19:00:00 10,6 6,5 29 16 - - E 0,0
22.05.2018 18:00:00 11,7 6,5 24 13 - - E 0,0
22.05.2018 17:00:00 12,0 6,3 26 14 - - E 0,0
22.05.2018 16:00:00 12,2 6,3 28 15 - - E 0,0
22.05.2018 15:00:00 12,5 6,7 26 14 - - E 0,0
22.05.2018 14:00:00 12,2 7,0 26 14 - - E 0,0
22.05.2018 13:00:00 11,1 6,0 29 16 - - E 0,0
22.05.2018 12:00:00 10,4 5,8 34 18 46 25 E 0,0
22.05.2018 11:00:00 9,0 5,6 31 17 50 27 E 0,0
22.05.2018 10:00:00 9,5 5,8 34 18 52 28 E 0,0
22.05.2018 09:00:00 9,0 5,3 31 17 48 26 ENE 0,0
22.05.2018 08:00:00 7,9 5,6 29 16 - - ENE 0,0
22.05.2018 07:00:00 7,3 5,5 28 15 46 25 E 0,0
22.05.2018 06:00:00 6,7 5,4 29 16 46 25 E 0,0
22.05.2018 05:00:00 6,7 5,7 29 16 48 26 E 0,0
22.05.2018 04:00:00 6,9 5,9 29 16 - - E 0,0
22.05.2018 03:00:00 7,4 6,0 22 12 - - E 0,0
22.05.2018 02:00:00 7,7 6,3 24 13 - - E 0,0
22.05.2018 01:00:00 8,3 7,0 28 15 - - E 0,0
22.05.2018 00:00:00 9,3 7,9 9 5 - - ENE 0,0
21.05.2018 23:00:00 8,7 7,5 8 4 - - SW 0,0
21.05.2018 22:00:00 9,1 7,7 9 5 - - WSW 0,0
21.05.2018 21:00:00 10,6 9,0 13 7 - - W 0,0
21.05.2018 20:00:00 11,4 9,1 21 11 - - W 0,0
21.05.2018 19:00:00 12,8 8,8 26 14 - - WSW 0,0
21.05.2018 18:00:00 15,0 9,1 26 14 - - W 0,0
21.05.2018 17:00:00 15,7 9,4 21 11 - - WSW 0,0
21.05.2018 16:00:00 16,4 10,1 18 10 - - W 0,0
21.05.2018 15:00:00 17,2 10,3 16 9 - - W 0,0
21.05.2018 14:00:00 16,9 9,3 24 13 - - SSW 0,0
21.05.2018 13:00:00 16,3 9,1 21 11 - - SSW 0,0
21.05.2018 12:00:00 15,8 8,8 24 13 - - SSW 0,0
21.05.2018 11:00:00 15,8 8,9 24 13 - - SSW 0,0
21.05.2018 10:00:00 15,6 7,9 21 11 - - SSW 0,0
21.05.2018 09:00:00 15,4 7,1 22 12 - - S 0,0
21.05.2018 08:00:00 13,6 5,5 26 14 - - S 0,0
21.05.2018 07:00:00 11,9 3,7 22 12 - - S 0,0
21.05.2018 06:00:00 10,4 3,6 16 9 - - S 0,0
21.05.2018 05:00:00 9,1 4,1 15 8 - - S 0,0
21.05.2018 04:00:00 9,9 4,6 18 10 - - S 0,0
21.05.2018 03:00:00 10,5 4,4 22 12 - - S 0,0
21.05.2018 02:00:00 10,7 4,9 21 11 - - S 0,0
21.05.2018 01:00:00 11,4 4,9 24 13 - - S 0,0
21.05.2018 00:00:00 11,3 5,2 22 12 - - S 0,0
20.05.2018 23:00:00 11,7 5,6 26 14 - - S 0,0
20.05.2018 22:00:00 11,9 6,5 18 10 - - S 0,0
20.05.2018 21:00:00 12,5 6,8 18 10 - - S 0,0
20.05.2018 20:00:00 12,7 6,4 26 14 - - S 0,0
20.05.2018 19:00:00 13,6 6,4 29 16 - - S 0,0
20.05.2018 18:00:00 14,7 8,1 24 13 48 26 S 0,0
20.05.2018 17:00:00 15,3 7,9 35 19 54 29 SSW 0,0
20.05.2018 16:00:00 15,1 8,3 31 17 52 28 S 0,0
20.05.2018 15:00:00 15,2 7,5 35 19 54 29 S 0,0
20.05.2018 14:00:00 15,9 8,2 37 20 52 28 S 0,0
20.05.2018 13:00:00 14,6 7,5 39 21 52 28 S 0,0
20.05.2018 12:00:00 13,5 6,8 41 22 54 29 S 0,0
20.05.2018 11:00:00 13,1 7,6 31 17 - - S 0,0
20.05.2018 10:00:00 12,5 6,8 31 17 - - S 0,0
20.05.2018 09:00:00 11,2 6,3 24 13 - - SSW 0,0
20.05.2018 08:00:00 10,0 6,3 28 15 46 25 S 0,0
20.05.2018 07:00:00 9,6 5,6 35 19 50 27 S 0,0
20.05.2018 06:00:00 9,9 5,2 37 20 48 26 S 0,0
20.05.2018 05:00:00 10,1 5,1 34 18 - - S 0,0
20.05.2018 04:00:00 10,2 5,5 34 18 52 28 S 0,0
20.05.2018 03:00:00 10,3 5,7 31 17 - - S 0,0
20.05.2018 02:00:00 9,9 5,9 29 16 - - S 0,0
20.05.2018 01:00:00 10,2 5,7 34 18 48 26 S 0,0
20.05.2018 00:00:00 10,3 5,4 31 17 - - S 0,0
19.05.2018 23:00:00 10,7 5,2 29 16 46 25 S 0,0
19.05.2018 22:00:00 11,7 4,8 35 19 52 28 S 0,0
19.05.2018 21:00:00 12,4 5,0 31 17 52 28 S 0,0
19.05.2018 20:00:00 13,4 6,0 31 17 - - S 0,0
19.05.2018 19:00:00 15,3 6,1 31 17 46 25 S 0,0
19.05.2018 18:00:00 15,8 6,2 34 18 - - SSW 0,0
19.05.2018 17:00:00 16,4 4,0 31 17 48 26 S 0,0
19.05.2018 16:00:00 16,8 5,2 31 17 50 27 S 0,0
19.05.2018 15:00:00 17,7 7,6 34 18 50 27 S 0,0
19.05.2018 14:00:00 17,0 7,5 29 16 50 27 S 0,0
19.05.2018 13:00:00 16,7 6,5 26 14 - - S 0,0
19.05.2018 12:00:00 16,2 6,4 18 10 - - S 0,0
19.05.2018 11:00:00 15,1 5,6 16 9 - - SSW 0,0
19.05.2018 10:00:00 13,7 5,5 13 7 - - S 0,0
19.05.2018 09:00:00 12,1 5,0 18 10 - - S 0,0
19.05.2018 08:00:00 10,7 4,3 16 9 - - S 0,0
19.05.2018 07:00:00 9,1 4,5 18 10 - - SSE 0,0
19.05.2018 06:00:00 7,7 4,6 18 10 - - SSE 0,0
19.05.2018 05:00:00 6,9 5,4 15 8 - - SSE 0,0
19.05.2018 04:00:00 6,5 5,2 11 6 - - SSE 0,0

tt = temperature
td = dewpoint
ff = wind speed
fx = gusts
dd = wind direction
rr = precipitation

Next stations